Ana Sayfa
METAR-TAF:

METAR-TAF

Havaalanları :

Knoxville Municipal Airport

Knoxville, Iowa, Amerika Birleşik Devletleri

Enlem: 41-18N, Boylam: 093-07W, yükseklik: 283 m

Güncel hava durumu gözlemi

Rapor saat 10:15 UTC de 33 dakika önce yapıldı.
Rüzgar güneybatıdan 14 kt ve 21 kt'a kadar ani rüzgarlar
Sıcaklık 28°C
Nem 66%
Basınç 1006 hPa
Görüş mesafesi: 16.1 km
Açık gökyüzü

METAR: KOXV 251015Z AUTO 22014G21KT 10SM CLR 28/21 A2970 RMK AO2

Saat: 05:48 (10:48 UTC)


TAF: eksik

4.000'den fazla havaalanı için hava durumu gözlemleri ve tahminleri (METAR ve TAF raporları).

Kullanılabilir istasyonlar harita üzerinde sarı ve kırmızı noktalarla gösterilir.

İstasyonun adını görmek için fareyi noktanın üzerinde gezdirin.

Sonrasında hava gözlem ve tahminlerini görmek için tıklayın.

Haritayı değiştirmek için: yaklaştırmak için siyah artı işaretli yeşil düğmeye ve uzaklaştırmak için de eksi işaretli düğmeye hızla tıklayın; bitişik haritalar için yeşil okları kullanın.


METAR-TAF: